Huvudsida
METAR-TAF:

METAR-TAF

Flygplatser :

Hagåtña, Guam, USA

Antonio B. Won Pat International Airport

latitud: 13-29N, longitud: 144-48E, höjd: 91 m

Aktuellt väderrapport

Denna rapport gjordes för 1 timme och 10 minuter sedan, klockan 23:54 UTC
Vind 15 kt från ost/nordost
Temperatur 29°C
Fuktighet 66%
Tryck 1013 hPa
Sikt: 16.1 km
Få moln på en höjd av 2800 ft

METAR: PGUM 192354Z 07015KT 10SM FEW028 29/22 A2990 RMK AO2 SLP115 T02940222 10294 20256 51017

Tid: 11:04 (01:04 UTC)

Väderprognos

Denna rapport gjordes för 1 timme och 36 minuter sedan, klockan 23:28 UTC
Prognos gäller från 20 kl. 00 UTC till 21 kl. 06 UTC
Vind 15 kt från ost/nordost
Sikt: 10 km
Spridda moln på en höjd av 2400 ft
Från 20 kl. 0800 UTC
Vind 9 kt från ost/nordost
Sikt: 10 km
Få moln på en höjd av 2400 ft
Spridda moln på en höjd av 5000 ft

TAF: PGUM 192328Z 2000/2106 06015KT P6SM SCT024 FM200800 06009KT P6SM FEW024 SCT050

Aktuella väderrapporter och prognoser från 4000 flygplatser (METAR- och TAF-rapporter).

De tillgängliga stationerna syns som gula och röda prickar på kartan.

För musen över prickarna för att se namnen på stationerna.

Klicka sedan för att få väderrapporter och prognoser.

För att ändra kartan: Klicka på de gröna knapparna med ett svart kors på för att zooma in; den gröna knappen med ett streck på för att zooma ut; eller på de gröna pilarna för angränsande kartor.


METAR-TAF: